sensor_id;sensor_type;location;lat;lon;timestamp;pressure;altitude;pressure_sealevel;temperature;humidity
73453;BME280;61687;56.232;43.854;2023-06-10T06:06:38;101219.63;;;13.85;56.67
73453;BME280;61687;56.232;43.854;2023-06-10T06:09:05;101226.84;;;14.16;56.73
73453;BME280;61687;56.232;43.854;2023-06-10T06:11:33;101233.84;;;14.64;54.86
73453;BME280;61687;56.232;43.854;2023-06-10T06:13:59;101231.78;;;14.57;53.02
73453;BME280;61687;56.232;43.854;2023-06-10T06:16:25;101227.66;;;14.71;53.42
73453;BME280;61687;56.232;43.854;2023-06-10T06:18:51;101223.69;;;14.99;53.32
73453;BME280;61687;56.232;43.854;2023-06-10T06:21:17;101223.50;;;14.84;49.80
73453;BME280;61687;56.232;43.854;2023-06-10T06:23:43;101226.44;;;14.68;51.37
73453;BME280;61687;56.232;43.854;2023-06-10T06:26:08;101228.19;;;14.80;51.80
73453;BME280;61687;56.232;43.854;2023-06-10T06:28:34;101230.84;;;14.73;51.25
73453;BME280;61687;56.232;43.854;2023-06-10T06:31:00;101233.94;;;14.98;50.63
73453;BME280;61687;56.232;43.854;2023-06-10T06:33:26;101221.69;;;15.30;50.89
73453;BME280;61687;56.232;43.854;2023-06-10T06:35:52;101231.94;;;15.67;49.42
73453;BME280;61687;56.232;43.854;2023-06-10T06:38:18;101226.44;;;15.33;48.30
73453;BME280;61687;56.232;43.854;2023-06-10T06:40:44;101232.00;;;15.02;48.73
73453;BME280;61687;56.232;43.854;2023-06-10T06:43:10;101232.19;;;14.86;50.70
73453;BME280;61687;56.232;43.854;2023-06-10T06:45:35;101236.66;;;14.68;51.26
73453;BME280;61687;56.232;43.854;2023-06-10T06:48:01;101251.06;;;14.30;52.89
73453;BME280;61687;56.232;43.854;2023-06-10T06:50:27;101243.19;;;14.06;52.34
73453;BME280;61687;56.232;43.854;2023-06-10T06:52:53;101243.88;;;13.99;51.71
73453;BME280;61687;56.232;43.854;2023-06-10T06:55:19;101244.78;;;14.30;51.40
73453;BME280;61687;56.232;43.854;2023-06-10T06:57:45;101245.34;;;14.70;50.40
73453;BME280;61687;56.232;43.854;2023-06-10T07:00:12;101239.59;;;15.09;50.13
73453;BME280;61687;56.232;43.854;2023-06-10T07:02:38;101246.69;;;15.44;50.39
73453;BME280;61687;56.232;43.854;2023-06-10T07:05:04;101247.88;;;15.47;50.27
73453;BME280;61687;56.232;43.854;2023-06-10T07:07:30;101259.00;;;15.51;49.65
73453;BME280;61687;56.232;43.854;2023-06-10T07:09:56;101257.69;;;15.79;49.42
73453;BME280;61687;56.232;43.854;2023-06-10T07:12:22;101254.41;;;16.07;48.48
73453;BME280;61687;56.232;43.854;2023-06-10T07:14:50;101246.66;;;16.24;47.18
73453;BME280;61687;56.232;43.854;2023-06-10T07:17:17;101247.38;;;16.73;46.67
73453;BME280;61687;56.232;43.854;2023-06-10T07:19:44;101252.00;;;16.54;45.70
73453;BME280;61687;56.232;43.854;2023-06-10T07:22:10;101255.56;;;16.58;45.67
73453;BME280;61687;56.232;43.854;2023-06-10T07:24:35;101262.56;;;15.89;45.39
73453;BME280;61687;56.232;43.854;2023-06-10T07:27:01;101254.56;;;15.42;46.91
73453;BME280;61687;56.232;43.854;2023-06-10T07:29:27;101273.94;;;14.81;47.45
73453;BME280;61687;56.232;43.854;2023-06-10T07:31:53;101265.97;;;14.76;48.37
73453;BME280;61687;56.232;43.854;2023-06-10T07:34:19;101271.91;;;14.78;46.40
73453;BME280;61687;56.232;43.854;2023-06-10T07:36:45;101262.56;;;14.86;47.03
73453;BME280;61687;56.232;43.854;2023-06-10T07:39:11;101263.84;;;15.27;46.58
73453;BME280;61687;56.232;43.854;2023-06-10T07:41:37;101256.91;;;15.78;46.06
73453;BME280;61687;56.232;43.854;2023-06-10T07:44:03;101258.59;;;16.39;46.37
73453;BME280;61687;56.232;43.854;2023-06-10T07:46:29;101260.06;;;16.78;46.03
73453;BME280;61687;56.232;43.854;2023-06-10T07:48:55;101270.59;;;16.57;45.09
73453;BME280;61687;56.232;43.854;2023-06-10T07:51:21;101275.91;;;15.83;43.80
73453;BME280;61687;56.232;43.854;2023-06-10T07:53:47;101281.91;;;15.55;45.81
73453;BME280;61687;56.232;43.854;2023-06-10T07:56:13;101277.16;;;14.87;46.11
73453;BME280;61687;56.232;43.854;2023-06-10T07:58:39;101269.66;;;15.18;46.29
73453;BME280;61687;56.232;43.854;2023-06-10T08:01:05;101276.72;;;15.84;46.32
73453;BME280;61687;56.232;43.854;2023-06-10T08:03:30;101273.84;;;16.18;46.41
73453;BME280;61687;56.232;43.854;2023-06-10T08:05:56;101282.56;;;16.16;44.83
73453;BME280;61687;56.232;43.854;2023-06-10T08:08:22;101279.06;;;15.85;43.77
73453;BME280;61687;56.232;43.854;2023-06-10T08:10:48;101283.25;;;15.68;45.08
73453;BME280;61687;56.232;43.854;2023-06-10T08:13:15;101290.25;;;15.96;45.62
73453;BME280;61687;56.232;43.854;2023-06-10T08:15:40;101292.41;;;16.14;45.45
73453;BME280;61687;56.232;43.854;2023-06-10T08:18:06;101294.13;;;15.50;44.91
73453;BME280;61687;56.232;43.854;2023-06-10T08:20:32;101307.00;;;15.08;46.14
73453;BME280;61687;56.232;43.854;2023-06-10T08:22:58;101299.81;;;15.00;44.15
73453;BME280;61687;56.232;43.854;2023-06-10T08:25:24;101297.41;;;15.29;45.84
73453;BME280;61687;56.232;43.854;2023-06-10T08:27:50;101300.00;;;15.49;45.29
73453;BME280;61687;56.232;43.854;2023-06-10T08:30:17;101300.91;;;15.94;44.10
73453;BME280;61687;56.232;43.854;2023-06-10T08:32:43;101298.38;;;16.20;42.51
73453;BME280;61687;56.232;43.854;2023-06-10T08:35:09;101308.13;;;16.55;41.69
73453;BME280;61687;56.232;43.854;2023-06-10T08:37:35;101317.75;;;16.23;43.43
73453;BME280;61687;56.232;43.854;2023-06-10T08:40:01;101321.59;;;15.73;44.50
73453;BME280;61687;56.232;43.854;2023-06-10T08:45:01;101311.59;;;15.27;44.80
73453;BME280;61687;56.232;43.854;2023-06-10T08:47:30;101312.53;;;15.73;44.16
73453;BME280;61687;56.232;43.854;2023-06-10T08:50:05;101303.19;;;16.26;43.37
73453;BME280;61687;56.232;43.854;2023-06-10T08:52:36;101306.41;;;16.36;41.57
73453;BME280;61687;56.232;43.854;2023-06-10T08:55:17;101335.81;;;16.58;41.05
73453;BME280;61687;56.232;43.854;2023-06-10T08:57:45;101308.78;;;15.92;41.68
73453;BME280;61687;56.232;43.854;2023-06-10T09:00:13;101312.53;;;16.11;42.21
73453;BME280;61687;56.232;43.854;2023-06-10T09:02:39;101321.94;;;16.02;41.96
73453;BME280;61687;56.232;43.854;2023-06-10T09:05:06;101319.16;;;16.02;42.35
73453;BME280;61687;56.232;43.854;2023-06-10T09:07:32;101309.34;;;16.12;40.84
73453;BME280;61687;56.232;43.854;2023-06-10T09:10:00;101330.03;;;16.26;41.61
73453;BME280;61687;56.232;43.854;2023-06-10T09:12:29;101324.59;;;16.37;41.31
73453;BME280;61687;56.232;43.854;2023-06-10T09:14:55;101345.19;;;16.43;39.19
73453;BME280;61687;56.232;43.854;2023-06-10T09:17:22;101328.59;;;15.98;40.60
73453;BME280;61687;56.232;43.854;2023-06-10T09:19:48;101329.25;;;16.25;40.11
73453;BME280;61687;56.232;43.854;2023-06-10T09:22:15;101332.34;;;16.16;40.27
73453;BME280;61687;56.232;43.854;2023-06-10T09:24:41;101334.09;;;15.94;40.51
73453;BME280;61687;56.232;43.854;2023-06-10T09:27:08;101324.63;;;15.95;40.12
73453;BME280;61687;56.232;43.854;2023-06-10T09:32:13;101327.47;;;16.06;40.67
73453;BME280;61687;56.232;43.854;2023-06-10T09:34:40;101331.88;;;16.11;40.77
73453;BME280;61687;56.232;43.854;2023-06-10T09:37:06;101333.22;;;16.28;40.61
73453;BME280;61687;56.232;43.854;2023-06-10T09:39:34;101350.41;;;16.07;39.94
73453;BME280;61687;56.232;43.854;2023-06-10T09:41:59;101336.09;;;15.63;39.18
73453;BME280;61687;56.232;43.854;2023-06-10T09:44:25;101343.38;;;15.44;38.88
73453;BME280;61687;56.232;43.854;2023-06-10T09:46:51;101334.19;;;15.37;40.32
73453;BME280;61687;56.232;43.854;2023-06-10T09:49:17;101333.34;;;15.67;38.39
73453;BME280;61687;56.232;43.854;2023-06-10T09:51:53;101323.28;;;15.82;39.46
73453;BME280;61687;56.232;43.854;2023-06-10T09:54:20;101325.31;;;16.30;39.74
73453;BME280;61687;56.232;43.854;2023-06-10T09:56:48;101337.78;;;16.54;40.05
73453;BME280;61687;56.232;43.854;2023-06-10T09:59:14;101344.16;;;15.79;39.00
73453;BME280;61687;56.232;43.854;2023-06-10T10:01:40;101346.66;;;15.23;37.67
73453;BME280;61687;56.232;43.854;2023-06-10T10:04:06;101339.53;;;15.53;39.28
73453;BME280;61687;56.232;43.854;2023-06-10T10:06:32;101334.00;;;15.87;39.08
73453;BME280;61687;56.232;43.854;2023-06-10T10:08:58;101338.34;;;15.88;39.54
73453;BME280;61687;56.232;43.854;2023-06-10T10:11:24;101336.78;;;16.32;39.46
73453;BME280;61687;56.232;43.854;2023-06-10T10:13:52;101349.53;;;16.44;37.53
73453;BME280;61687;56.232;43.854;2023-06-10T10:16:30;101342.72;;;16.86;36.06
73453;BME280;61687;56.232;43.854;2023-06-10T10:19:07;101346.63;;;17.41;35.95
73453;BME280;61687;56.232;43.854;2023-06-10T10:21:40;101355.59;;;18.38;34.54
73453;BME280;61687;56.232;43.854;2023-06-10T10:24:21;101340.78;;;19.32;32.96
73453;BME280;61687;56.232;43.854;2023-06-10T10:26:50;101336.56;;;20.40;30.41
73453;BME280;61687;56.232;43.854;2023-06-10T10:29:24;101345.84;;;21.44;29.74
73453;BME280;61687;56.232;43.854;2023-06-10T10:31:51;101352.38;;;21.65;28.14
73453;BME280;61687;56.232;43.854;2023-06-10T10:34:43;101351.97;;;20.97;30.00
73453;BME280;61687;56.232;43.854;2023-06-10T10:37:11;101349.34;;;21.83;27.78
73453;BME280;61687;56.232;43.854;2023-06-10T10:39:36;101344.56;;;23.43;27.30
73453;BME280;61687;56.232;43.854;2023-06-10T10:42:04;101342.72;;;24.10;25.24
73453;BME280;61687;56.232;43.854;2023-06-10T10:44:31;101352.81;;;23.87;24.86
73453;BME280;61687;56.232;43.854;2023-06-10T10:47:02;101348.53;;;23.46;25.10
73453;BME280;61687;56.232;43.854;2023-06-10T10:49:30;101340.00;;;24.56;24.24
73453;BME280;61687;56.232;43.854;2023-06-10T10:52:01;101340.84;;;23.10;25.05
73453;BME280;61687;56.232;43.854;2023-06-10T10:54:35;101342.28;;;25.21;23.60
73453;BME280;61687;56.232;43.854;2023-06-10T10:57:18;101356.41;;;25.85;20.91
73453;BME280;61687;56.232;43.854;2023-06-10T10:59:57;101352.47;;;25.96;21.65
73453;BME280;61687;56.232;43.854;2023-06-10T11:02:43;101347.22;;;27.17;21.04
73453;BME280;61687;56.232;43.854;2023-06-10T11:05:16;101341.59;;;28.21;19.21
73453;BME280;61687;56.232;43.854;2023-06-10T11:07:53;101348.69;;;28.44;18.72
73453;BME280;61687;56.232;43.854;2023-06-10T11:10:33;101346.50;;;28.76;17.82
73453;BME280;61687;56.232;43.854;2023-06-10T11:12:59;101344.56;;;29.29;18.14
73453;BME280;61687;56.232;43.854;2023-06-10T11:15:29;101359.09;;;30.72;18.07
73453;BME280;61687;56.232;43.854;2023-06-10T11:26:30;101355.09;;;24.92;21.75
73453;BME280;61687;56.232;43.854;2023-06-10T11:34:02;101358.31;;;24.91;22.58
73453;BME280;61687;56.232;43.854;2023-06-10T11:36:30;101348.34;;;27.51;20.16
73453;BME280;61687;56.232;43.854;2023-06-10T11:38:57;101352.75;;;29.70;18.69
73453;BME280;61687;56.232;43.854;2023-06-10T11:41:24;101363.78;;;30.50;17.55
73453;BME280;61687;56.232;43.854;2023-06-10T11:43:55;101356.38;;;30.92;17.63
73453;BME280;61687;56.232;43.854;2023-06-10T11:46:24;101367.41;;;31.80;16.49
73453;BME280;61687;56.232;43.854;2023-06-10T11:48:54;101368.47;;;29.00;17.17
73453;BME280;61687;56.232;43.854;2023-06-10T11:51:21;101365.47;;;28.85;17.72
73453;BME280;61687;56.232;43.854;2023-06-10T11:53:50;101356.41;;;30.29;17.26
73453;BME280;61687;56.232;43.854;2023-06-10T11:56:20;101387.66;;;28.36;17.63
73453;BME280;61687;56.232;43.854;2023-06-10T11:58:52;101381.75;;;24.84;21.65
73453;BME280;61687;56.232;43.854;2023-06-10T12:01:22;101376.91;;;24.68;22.30
73453;BME280;61687;56.232;43.854;2023-06-10T12:03:56;101378.81;;;24.41;22.47
73453;BME280;61687;56.232;43.854;2023-06-10T12:06:22;101385.38;;;26.47;21.77
73453;BME280;61687;56.232;43.854;2023-06-10T12:08:48;101373.13;;;28.66;19.84
73453;BME280;61687;56.232;43.854;2023-06-10T12:11:14;101380.94;;;28.34;19.45
73453;BME280;61687;56.232;43.854;2023-06-10T12:13:46;101381.22;;;24.89;21.85
73453;BME280;61687;56.232;43.854;2023-06-10T12:16:14;101385.16;;;27.34;20.13
73453;BME280;61687;56.232;43.854;2023-06-10T12:18:41;101378.13;;;28.34;19.12
73453;BME280;61687;56.232;43.854;2023-06-10T12:21:19;101370.66;;;29.05;18.96
73453;BME280;61687;56.232;43.854;2023-06-10T12:24:05;101380.66;;;28.97;18.80
73453;BME280;61687;56.232;43.854;2023-06-10T12:29:20;101382.41;;;26.64;20.51
73453;BME280;61687;56.232;43.854;2023-06-10T12:34:19;101385.19;;;23.32;23.13
73453;BME280;61687;56.232;43.854;2023-06-10T12:36:49;101390.44;;;25.32;20.95
73453;BME280;61687;56.232;43.854;2023-06-10T12:39:15;101388.00;;;26.28;19.68
73453;BME280;61687;56.232;43.854;2023-06-10T12:41:47;101389.34;;;27.29;18.93
73453;BME280;61687;56.232;43.854;2023-06-10T12:44:14;101387.56;;;29.14;17.80
73453;BME280;61687;56.232;43.854;2023-06-10T12:46:40;101376.72;;;29.32;17.74
73453;BME280;61687;56.232;43.854;2023-06-10T12:49:05;101385.75;;;27.51;18.81
73453;BME280;61687;56.232;43.854;2023-06-10T12:51:31;101386.16;;;27.18;19.52
73453;BME280;61687;56.232;43.854;2023-06-10T12:53:57;101397.47;;;27.50;19.77
73453;BME280;61687;56.232;43.854;2023-06-10T12:56:23;101384.59;;;25.69;20.56
73453;BME280;61687;56.232;43.854;2023-06-10T12:58:49;101394.63;;;24.15;22.26
73453;BME280;61687;56.232;43.854;2023-06-10T13:01:15;101388.09;;;22.05;24.85
73453;BME280;61687;56.232;43.854;2023-06-10T13:03:41;101392.38;;;22.13;25.14
73453;BME280;61687;56.232;43.854;2023-06-10T13:06:07;101384.28;;;21.61;25.13
73453;BME280;61687;56.232;43.854;2023-06-10T13:08:33;101389.34;;;22.55;24.43
73453;BME280;61687;56.232;43.854;2023-06-10T13:10:58;101387.50;;;26.04;21.25
73453;BME280;61687;56.232;43.854;2023-06-10T13:13:25;101379.28;;;27.73;20.50
73453;BME280;61687;56.232;43.854;2023-06-10T13:15:51;101387.56;;;26.65;20.47
73453;BME280;61687;56.232;43.854;2023-06-10T13:18:17;101408.97;;;25.00;22.38
73453;BME280;61687;56.232;43.854;2023-06-10T13:20:45;101392.81;;;26.28;22.23
73453;BME280;61687;56.232;43.854;2023-06-10T13:23:11;101388.63;;;26.46;21.51
73453;BME280;61687;56.232;43.854;2023-06-10T13:25:37;101401.19;;;24.91;22.67
73453;BME280;61687;56.232;43.854;2023-06-10T13:28:03;101391.00;;;25.95;21.70
73453;BME280;61687;56.232;43.854;2023-06-10T13:30:29;101389.09;;;25.66;21.54
73453;BME280;61687;56.232;43.854;2023-06-10T13:32:55;101410.41;;;22.84;24.18
73453;BME280;61687;56.232;43.854;2023-06-10T13:35:21;101415.09;;;21.84;24.90
73453;BME280;61687;56.232;43.854;2023-06-10T13:37:46;101412.81;;;22.07;24.89
73453;BME280;61687;56.232;43.854;2023-06-10T13:40:12;101408.22;;;23.60;24.09
73453;BME280;61687;56.232;43.854;2023-06-10T13:42:38;101398.25;;;25.24;22.22
73453;BME280;61687;56.232;43.854;2023-06-10T13:45:05;101396.69;;;25.53;22.68
73453;BME280;61687;56.232;43.854;2023-06-10T13:47:31;101414.34;;;23.10;23.07
73453;BME280;61687;56.232;43.854;2023-06-10T13:49:57;101407.38;;;21.96;24.27
73453;BME280;61687;56.232;43.854;2023-06-10T13:52:23;101408.66;;;22.94;24.01
73453;BME280;61687;56.232;43.854;2023-06-10T13:54:49;101405.94;;;23.91;23.65
73453;BME280;61687;56.232;43.854;2023-06-10T13:57:15;101404.13;;;21.70;25.04
73453;BME280;61687;56.232;43.854;2023-06-10T13:59:41;101412.44;;;19.91;27.88
73453;BME280;61687;56.232;43.854;2023-06-10T14:02:06;101418.22;;;20.22;27.30
73453;BME280;61687;56.232;43.854;2023-06-10T14:04:32;101414.78;;;22.85;25.05
73453;BME280;61687;56.232;43.854;2023-06-10T14:06:58;101401.25;;;23.27;23.96
73453;BME280;61687;56.232;43.854;2023-06-10T14:09:24;101409.88;;;21.17;26.07
73453;BME280;61687;56.232;43.854;2023-06-10T14:11:50;101413.88;;;20.18;27.70
73453;BME280;61687;56.232;43.854;2023-06-10T14:14:15;101415.84;;;18.48;30.15
73453;BME280;61687;56.232;43.854;2023-06-10T14:16:41;101429.94;;;17.85;31.72
73453;BME280;61687;56.232;43.854;2023-06-10T14:19:07;101428.56;;;20.22;28.29
73453;BME280;61687;56.232;43.854;2023-06-10T14:21:33;101434.94;;;20.75;26.41
73453;BME280;61687;56.232;43.854;2023-06-10T14:23:59;101430.72;;;19.92;27.77
73453;BME280;61687;56.232;43.854;2023-06-10T14:26:24;101433.28;;;19.32;29.19
73453;BME280;61687;56.232;43.854;2023-06-10T14:28:51;101434.91;;;18.90;29.97
73453;BME280;61687;56.232;43.854;2023-06-10T14:31:17;101437.28;;;18.66;31.02
73453;BME280;61687;56.232;43.854;2023-06-10T14:33:43;101443.44;;;17.90;31.60
73453;BME280;61687;56.232;43.854;2023-06-10T14:36:10;101444.91;;;17.62;31.73
73453;BME280;61687;56.232;43.854;2023-06-10T14:38:36;101447.53;;;17.33;31.98
73453;BME280;61687;56.232;43.854;2023-06-10T14:41:02;101444.72;;;16.77;32.71
73453;BME280;61687;56.232;43.854;2023-06-10T14:43:28;101454.56;;;16.74;33.27
73453;BME280;61687;56.232;43.854;2023-06-10T14:45:53;101446.91;;;16.19;34.31
73453;BME280;61687;56.232;43.854;2023-06-10T14:48:21;101441.78;;;16.59;34.46
73453;BME280;61687;56.232;43.854;2023-06-10T14:50:47;101452.25;;;16.77;34.08
73453;BME280;61687;56.232;43.854;2023-06-10T14:53:19;101462.56;;;17.36;33.07
73453;BME280;61687;56.232;43.854;2023-06-10T14:55:45;101453.34;;;17.91;32.08
73453;BME280;61687;56.232;43.854;2023-06-10T14:58:10;101469.34;;;17.45;31.78
73453;BME280;61687;56.232;43.854;2023-06-10T15:00:36;101463.19;;;16.66;32.92
73453;BME280;61687;56.232;43.854;2023-06-10T15:03:02;101461.97;;;16.22;33.95
73453;BME280;61687;56.232;43.854;2023-06-10T15:05:28;101459.91;;;16.15;34.28
73453;BME280;61687;56.232;43.854;2023-06-10T15:07:54;101467.88;;;16.20;34.44
73453;BME280;61687;56.232;43.854;2023-06-10T15:10:20;101474.28;;;15.94;34.77
73453;BME280;61687;56.232;43.854;2023-06-10T15:12:47;101476.91;;;15.56;34.98
73453;BME280;61687;56.232;43.854;2023-06-10T15:15:13;101475.19;;;15.74;35.36
73453;BME280;61687;56.232;43.854;2023-06-10T15:17:39;101470.06;;;15.77;35.37
73453;BME280;61687;56.232;43.854;2023-06-10T15:20:05;101475.31;;;15.82;35.02
73453;BME280;61687;56.232;43.854;2023-06-10T15:22:32;101466.13;;;16.05;34.99
73453;BME280;61687;56.232;43.854;2023-06-10T15:24:58;101482.91;;;16.23;35.35
73453;BME280;61687;56.232;43.854;2023-06-10T15:27:23;101472.53;;;16.50;35.18
73453;BME280;61687;56.232;43.854;2023-06-10T15:29:49;101477.09;;;16.73;35.36
73453;BME280;61687;56.232;43.854;2023-06-10T15:32:15;101478.13;;;16.57;34.91
73453;BME280;61687;56.232;43.854;2023-06-10T15:34:41;101485.56;;;16.91;34.55
73453;BME280;61687;56.232;43.854;2023-06-10T15:37:07;101482.38;;;16.89;34.61
73453;BME280;61687;56.232;43.854;2023-06-10T15:39:32;101485.88;;;16.82;34.10
73453;BME280;61687;56.232;43.854;2023-06-10T15:41:58;101486.28;;;16.84;34.20
73453;BME280;61687;56.232;43.854;2023-06-10T15:44:24;101484.97;;;16.67;34.12
73453;BME280;61687;56.232;43.854;2023-06-10T15:46:50;101501.03;;;16.54;34.41
73453;BME280;61687;56.232;43.854;2023-06-10T15:49:16;101501.47;;;16.22;34.87
73453;BME280;61687;56.232;43.854;2023-06-10T15:51:41;101507.63;;;16.08;35.32
73453;BME280;61687;56.232;43.854;2023-06-10T15:54:07;101498.66;;;15.88;35.22
73453;BME280;61687;56.232;43.854;2023-06-10T15:56:33;101503.34;;;15.53;35.29
73453;BME280;61687;56.232;43.854;2023-06-10T15:58:59;101512.41;;;15.27;35.90
73453;BME280;61687;56.232;43.854;2023-06-10T16:01:25;101510.38;;;15.00;36.27
73453;BME280;61687;56.232;43.854;2023-06-10T16:03:51;101509.28;;;15.05;37.03
73453;BME280;61687;56.232;43.854;2023-06-10T16:06:16;101513.22;;;15.04;36.52
73453;BME280;61687;56.232;43.854;2023-06-10T16:08:42;101507.75;;;14.84;37.18
73453;BME280;61687;56.232;43.854;2023-06-10T16:11:08;101530.88;;;14.76;36.76
73453;BME280;61687;56.232;43.854;2023-06-10T16:13:35;101531.50;;;14.89;38.08
73453;BME280;61687;56.232;43.854;2023-06-10T16:16:01;101529.75;;;14.81;36.77
73453;BME280;61687;56.232;43.854;2023-06-10T16:18:26;101529.22;;;14.71;36.33
73453;BME280;61687;56.232;43.854;2023-06-10T16:20:52;101528.31;;;14.67;36.54
73453;BME280;61687;56.232;43.854;2023-06-10T16:23:18;101537.31;;;14.64;36.80
73453;BME280;61687;56.232;43.854;2023-06-10T16:25:44;101550.53;;;14.35;36.92
73453;BME280;61687;56.232;43.854;2023-06-10T16:28:10;101538.72;;;14.35;37.31
73453;BME280;61687;56.232;43.854;2023-06-10T16:30:36;101555.06;;;14.43;37.26
73453;BME280;61687;56.232;43.854;2023-06-10T16:33:02;101546.91;;;14.51;37.43
73453;BME280;61687;56.232;43.854;2023-06-10T16:35:28;101554.91;;;14.56;37.51
73453;BME280;61687;56.232;43.854;2023-06-10T16:37:53;101550.13;;;14.33;37.85
73453;BME280;61687;56.232;43.854;2023-06-10T16:40:19;101550.63;;;14.19;38.02
73453;BME280;61687;56.232;43.854;2023-06-10T16:42:45;101555.88;;;13.88;38.68
73453;BME280;61687;56.232;43.854;2023-06-10T16:45:11;101550.75;;;14.07;38.69
73453;BME280;61687;56.232;43.854;2023-06-10T16:47:37;101562.88;;;14.02;39.02
73453;BME280;61687;56.232;43.854;2023-06-10T16:50:03;101565.09;;;13.96;39.00
73453;BME280;61687;56.232;43.854;2023-06-10T16:52:29;101557.63;;;13.97;38.94
73453;BME280;61687;56.232;43.854;2023-06-10T16:54:55;101571.53;;;13.84;38.96
73453;BME280;61687;56.232;43.854;2023-06-10T16:57:21;101572.16;;;13.78;39.24
73453;BME280;61687;56.232;43.854;2023-06-10T16:59:47;101580.00;;;13.76;40.18
73453;BME280;61687;56.232;43.854;2023-06-10T17:02:13;101579.09;;;13.55;39.67
73453;BME280;61687;56.232;43.854;2023-06-10T17:04:39;101584.91;;;13.50;39.87
73453;BME280;61687;56.232;43.854;2023-06-10T17:07:05;101588.38;;;13.47;40.02
73453;BME280;61687;56.232;43.854;2023-06-10T17:09:31;101590.78;;;13.49;40.25
73453;BME280;61687;56.232;43.854;2023-06-10T17:11:56;101592.72;;;13.48;40.17
73453;BME280;61687;56.232;43.854;2023-06-10T17:14:22;101596.06;;;13.41;40.37
73453;BME280;61687;56.232;43.854;2023-06-10T17:16:51;101600.88;;;13.44;41.49
73453;BME280;61687;56.232;43.854;2023-06-10T17:19:17;101607.53;;;13.43;41.65
73453;BME280;61687;56.232;43.854;2023-06-10T17:21:43;101595.00;;;13.30;41.25
73453;BME280;61687;56.232;43.854;2023-06-10T17:24:09;101598.53;;;13.30;41.93
73453;BME280;61687;56.232;43.854;2023-06-10T17:26:35;101605.97;;;13.14;41.41
73453;BME280;61687;56.232;43.854;2023-06-10T17:29:01;101609.09;;;13.12;41.89
73453;BME280;61687;56.232;43.854;2023-06-10T17:31:28;101608.38;;;13.15;42.14
73453;BME280;61687;56.232;43.854;2023-06-10T17:33:54;101606.84;;;13.02;42.06
73453;BME280;61687;56.232;43.854;2023-06-10T17:36:20;101610.31;;;12.99;42.65
73453;BME280;61687;56.232;43.854;2023-06-10T17:38:47;101614.91;;;12.95;42.89
73453;BME280;61687;56.232;43.854;2023-06-10T17:41:12;101606.81;;;12.86;42.27
73453;BME280;61687;56.232;43.854;2023-06-10T17:43:38;101615.22;;;12.77;42.39
73453;BME280;61687;56.232;43.854;2023-06-10T17:46:04;101618.13;;;12.68;42.72
73453;BME280;61687;56.232;43.854;2023-06-10T17:48:30;101619.34;;;12.55;42.32
73453;BME280;61687;56.232;43.854;2023-06-10T17:50:56;101626.31;;;12.52;42.95
73453;BME280;61687;56.232;43.854;2023-06-10T17:53:22;101630.22;;;12.51;43.03
73453;BME280;61687;56.232;43.854;2023-06-10T17:55:48;101630.91;;;12.48;43.97
73453;BME280;61687;56.232;43.854;2023-06-10T17:58:14;101635.50;;;12.44;44.98
73453;BME280;61687;56.232;43.854;2023-06-10T18:00:40;101629.09;;;12.40;45.79
73453;BME280;61687;56.232;43.854;2023-06-10T18:03:06;101630.94;;;12.36;46.81
73453;BME280;61687;56.232;43.854;2023-06-10T18:05:32;101627.97;;;12.28;46.93
73453;BME280;61687;56.232;43.854;2023-06-10T18:07:58;101629.38;;;12.22;46.82
73453;BME280;61687;56.232;43.854;2023-06-10T18:10:23;101631.88;;;12.15;47.41
73453;BME280;61687;56.232;43.854;2023-06-10T18:12:49;101627.31;;;12.07;47.21
73453;BME280;61687;56.232;43.854;2023-06-10T18:15:15;101625.94;;;12.00;47.46
73453;BME280;61687;56.232;43.854;2023-06-10T18:17:41;101620.66;;;11.95;47.10
73453;BME280;61687;56.232;43.854;2023-06-10T18:20:07;101632.34;;;11.92;48.30
73453;BME280;61687;56.232;43.854;2023-06-10T18:22:33;101634.50;;;11.86;48.70
73453;BME280;61687;56.232;43.854;2023-06-10T18:24:59;101640.59;;;11.80;49.26
73453;BME280;61687;56.232;43.854;2023-06-10T18:27:33;101636.91;;;11.76;49.54
73453;BME280;61687;56.232;43.854;2023-06-10T18:30:00;101641.50;;;11.71;49.38
73453;BME280;61687;56.232;43.854;2023-06-10T18:32:25;101643.31;;;11.67;49.82
73453;BME280;61687;56.232;43.854;2023-06-10T18:34:51;101647.78;;;11.59;50.47
73453;BME280;61687;56.232;43.854;2023-06-10T18:37:18;101643.66;;;11.53;50.92
73453;BME280;61687;56.232;43.854;2023-06-10T18:39:44;101644.53;;;11.45;51.56
73453;BME280;61687;56.232;43.854;2023-06-10T18:42:10;101647.41;;;11.36;51.57
73453;BME280;61687;56.232;43.854;2023-06-10T18:44:37;101642.47;;;11.29;51.79
73453;BME280;61687;56.232;43.854;2023-06-10T18:47:03;101647.38;;;11.24;52.34
73453;BME280;61687;56.232;43.854;2023-06-10T18:49:29;101648.72;;;11.18;52.94
73453;BME280;61687;56.232;43.854;2023-06-10T18:51:55;101651.66;;;11.12;52.87
73453;BME280;61687;56.232;43.854;2023-06-10T18:54:20;101648.44;;;11.10;53.54
73453;BME280;61687;56.232;43.854;2023-06-10T18:56:46;101658.19;;;11.08;53.67
73453;BME280;61687;56.232;43.854;2023-06-10T18:59:13;101657.59;;;11.02;53.81
73453;BME280;61687;56.232;43.854;2023-06-10T19:01:39;101658.94;;;10.96;53.71
73453;BME280;61687;56.232;43.854;2023-06-10T19:04:05;101657.34;;;10.95;54.22
73453;BME280;61687;56.232;43.854;2023-06-10T19:06:31;101665.75;;;10.90;54.91
73453;BME280;61687;56.232;43.854;2023-06-10T19:08:58;101673.03;;;10.85;55.42